sensor_id;sensor_type;location;lat;lon;timestamp;temperature;humidity
13808;DHT22;40769;51.512;5.494;2023-09-19T00:00:22;18.10;99.90
13808;DHT22;40769;51.512;5.494;2023-09-19T00:02:55;18.10;99.90
13808;DHT22;40769;51.512;5.494;2023-09-19T00:05:28;18.10;99.90
13808;DHT22;40769;51.512;5.494;2023-09-19T00:07:55;18.20;99.90
13808;DHT22;40769;51.512;5.494;2023-09-19T00:10:25;18.20;99.90
13808;DHT22;40769;51.512;5.494;2023-09-19T00:12:53;18.30;99.90
13808;DHT22;40769;51.512;5.494;2023-09-19T00:15:22;18.20;99.90
13808;DHT22;40769;51.512;5.494;2023-09-19T00:17:48;18.10;99.90
13808;DHT22;40769;51.512;5.494;2023-09-19T00:20:15;18.20;99.90
13808;DHT22;40769;51.512;5.494;2023-09-19T00:22:44;18.20;99.90
13808;DHT22;40769;51.512;5.494;2023-09-19T00:25:10;18.20;99.90
13808;DHT22;40769;51.512;5.494;2023-09-19T00:27:38;18.10;99.90
13808;DHT22;40769;51.512;5.494;2023-09-19T00:30:08;18.10;99.90
13808;DHT22;40769;51.512;5.494;2023-09-19T00:32:40;18.10;99.90
13808;DHT22;40769;51.512;5.494;2023-09-19T00:35:06;18.10;99.90
13808;DHT22;40769;51.512;5.494;2023-09-19T00:37:34;18.20;99.90
13808;DHT22;40769;51.512;5.494;2023-09-19T00:40:01;18.20;99.90
13808;DHT22;40769;51.512;5.494;2023-09-19T00:42:27;18.20;99.90
13808;DHT22;40769;51.512;5.494;2023-09-19T00:44:53;18.30;99.90
13808;DHT22;40769;51.512;5.494;2023-09-19T00:47:19;18.30;99.90
13808;DHT22;40769;51.512;5.494;2023-09-19T00:49:45;18.40;99.90
13808;DHT22;40769;51.512;5.494;2023-09-19T00:52:14;18.50;99.90
13808;DHT22;40769;51.512;5.494;2023-09-19T00:54:41;18.60;99.90
13808;DHT22;40769;51.512;5.494;2023-09-19T00:57:07;18.60;99.90
13808;DHT22;40769;51.512;5.494;2023-09-19T00:59:34;18.70;99.90
13808;DHT22;40769;51.512;5.494;2023-09-19T01:02:02;18.70;99.90
13808;DHT22;40769;51.512;5.494;2023-09-19T01:04:28;18.70;99.90
13808;DHT22;40769;51.512;5.494;2023-09-19T01:06:54;18.60;99.90
13808;DHT22;40769;51.512;5.494;2023-09-19T01:09:20;18.60;99.90
13808;DHT22;40769;51.512;5.494;2023-09-19T01:11:48;18.50;99.90
13808;DHT22;40769;51.512;5.494;2023-09-19T01:14:44;18.40;99.90
13808;DHT22;40769;51.512;5.494;2023-09-19T01:17:24;18.30;99.90
13808;DHT22;40769;51.512;5.494;2023-09-19T01:25:42;17.80;99.90
13808;DHT22;40769;51.512;5.494;2023-09-19T01:28:51;17.70;99.90
13808;DHT22;40769;51.512;5.494;2023-09-19T01:31:23;17.50;99.90
13808;DHT22;40769;51.512;5.494;2023-09-19T01:34:01;17.50;99.90
13808;DHT22;40769;51.512;5.494;2023-09-19T01:36:32;17.40;99.90
13808;DHT22;40769;51.512;5.494;2023-09-19T01:39:04;17.30;99.90
13808;DHT22;40769;51.512;5.494;2023-09-19T01:42:01;17.30;99.90
13808;DHT22;40769;51.512;5.494;2023-09-19T01:47:22;17.20;99.90
13808;DHT22;40769;51.512;5.494;2023-09-19T01:50:34;17.10;99.90
13808;DHT22;40769;51.512;5.494;2023-09-19T01:53:04;17.10;99.90
13808;DHT22;40769;51.512;5.494;2023-09-19T01:55:41;17.00;99.90
13808;DHT22;40769;51.512;5.494;2023-09-19T01:58:20;17.00;99.90
13808;DHT22;40769;51.512;5.494;2023-09-19T02:00:48;17.10;99.90
13808;DHT22;40769;51.512;5.494;2023-09-19T02:03:17;17.00;99.90
13808;DHT22;40769;51.512;5.494;2023-09-19T02:05:52;16.90;99.90
13808;DHT22;40769;51.512;5.494;2023-09-19T02:08:20;16.90;99.90
13808;DHT22;40769;51.512;5.494;2023-09-19T02:10:49;16.80;99.90
13808;DHT22;40769;51.512;5.494;2023-09-19T02:13:19;16.80;99.90
13808;DHT22;40769;51.512;5.494;2023-09-19T02:15:45;16.90;99.90
13808;DHT22;40769;51.512;5.494;2023-09-19T02:18:12;16.80;99.90
13808;DHT22;40769;51.512;5.494;2023-09-19T02:20:41;16.80;99.90
13808;DHT22;40769;51.512;5.494;2023-09-19T02:23:08;16.80;99.90
13808;DHT22;40769;51.512;5.494;2023-09-19T02:25:34;16.80;99.90
13808;DHT22;40769;51.512;5.494;2023-09-19T02:28:01;16.80;99.90
13808;DHT22;40769;51.512;5.494;2023-09-19T02:30:29;16.80;99.90
13808;DHT22;40769;51.512;5.494;2023-09-19T02:32:55;16.80;99.90
13808;DHT22;40769;51.512;5.494;2023-09-19T02:35:21;17.90;99.90
13808;DHT22;40769;51.512;5.494;2023-09-19T02:37:48;16.70;99.90
13808;DHT22;40769;51.512;5.494;2023-09-19T02:40:14;16.70;99.90
13808;DHT22;40769;51.512;5.494;2023-09-19T02:42:47;16.70;99.90
13808;DHT22;40769;51.512;5.494;2023-09-19T02:45:18;16.70;99.90
13808;DHT22;40769;51.512;5.494;2023-09-19T02:47:45;16.60;99.90
13808;DHT22;40769;51.512;5.494;2023-09-19T02:50:14;16.60;99.90
13808;DHT22;40769;51.512;5.494;2023-09-19T02:52:43;16.60;99.90
13808;DHT22;40769;51.512;5.494;2023-09-19T02:55:11;16.50;99.90
13808;DHT22;40769;51.512;5.494;2023-09-19T02:57:37;16.50;99.90
13808;DHT22;40769;51.512;5.494;2023-09-19T03:00:07;16.50;99.90
13808;DHT22;40769;51.512;5.494;2023-09-19T03:02:36;16.50;99.90
13808;DHT22;40769;51.512;5.494;2023-09-19T03:05:01;16.50;99.90
13808;DHT22;40769;51.512;5.494;2023-09-19T03:07:28;16.40;99.90
13808;DHT22;40769;51.512;5.494;2023-09-19T03:09:54;16.40;99.90
13808;DHT22;40769;51.512;5.494;2023-09-19T03:12:20;16.40;99.90
13808;DHT22;40769;51.512;5.494;2023-09-19T03:14:55;16.40;99.90
13808;DHT22;40769;51.512;5.494;2023-09-19T03:17:21;16.40;99.90
13808;DHT22;40769;51.512;5.494;2023-09-19T03:19:47;16.30;99.90
13808;DHT22;40769;51.512;5.494;2023-09-19T03:22:13;16.30;99.90
13808;DHT22;40769;51.512;5.494;2023-09-19T03:24:38;16.30;99.90
13808;DHT22;40769;51.512;5.494;2023-09-19T03:27:04;16.30;99.90
13808;DHT22;40769;51.512;5.494;2023-09-19T03:29:30;16.30;99.90
13808;DHT22;40769;51.512;5.494;2023-09-19T03:31:55;16.40;99.90
13808;DHT22;40769;51.512;5.494;2023-09-19T03:34:21;16.30;99.90
13808;DHT22;40769;51.512;5.494;2023-09-19T03:36:47;16.30;99.90
13808;DHT22;40769;51.512;5.494;2023-09-19T03:39:12;16.30;99.90
13808;DHT22;40769;51.512;5.494;2023-09-19T03:41:41;16.30;99.90
13808;DHT22;40769;51.512;5.494;2023-09-19T03:44:07;16.30;99.90
13808;DHT22;40769;51.512;5.494;2023-09-19T03:46:32;16.30;99.90
13808;DHT22;40769;51.512;5.494;2023-09-19T03:48:59;16.30;99.90
13808;DHT22;40769;51.512;5.494;2023-09-19T03:51:25;16.30;99.90
13808;DHT22;40769;51.512;5.494;2023-09-19T03:53:51;16.30;99.90
13808;DHT22;40769;51.512;5.494;2023-09-19T03:56:16;16.30;99.90
13808;DHT22;40769;51.512;5.494;2023-09-19T03:58:42;16.30;99.90
13808;DHT22;40769;51.512;5.494;2023-09-19T04:01:08;16.30;99.90
13808;DHT22;40769;51.512;5.494;2023-09-19T04:03:34;16.30;99.90
13808;DHT22;40769;51.512;5.494;2023-09-19T04:06:14;16.30;99.90
13808;DHT22;40769;51.512;5.494;2023-09-19T04:08:39;16.30;99.90
13808;DHT22;40769;51.512;5.494;2023-09-19T04:11:05;16.30;99.90
13808;DHT22;40769;51.512;5.494;2023-09-19T04:13:31;16.30;99.90
13808;DHT22;40769;51.512;5.494;2023-09-19T04:15:57;16.40;99.90
13808;DHT22;40769;51.512;5.494;2023-09-19T04:18:23;16.40;99.90
13808;DHT22;40769;51.512;5.494;2023-09-19T04:20:51;16.40;99.90
13808;DHT22;40769;51.512;5.494;2023-09-19T04:23:17;16.50;99.90
13808;DHT22;40769;51.512;5.494;2023-09-19T04:25:43;16.80;99.90
13808;DHT22;40769;51.512;5.494;2023-09-19T04:28:09;16.60;99.90
13808;DHT22;40769;51.512;5.494;2023-09-19T04:30:37;16.60;99.90
13808;DHT22;40769;51.512;5.494;2023-09-19T04:33:03;16.60;99.90
13808;DHT22;40769;51.512;5.494;2023-09-19T04:35:30;16.60;99.90
13808;DHT22;40769;51.512;5.494;2023-09-19T04:37:57;16.60;99.90
13808;DHT22;40769;51.512;5.494;2023-09-19T04:40:23;16.60;99.90
13808;DHT22;40769;51.512;5.494;2023-09-19T04:42:56;16.70;99.90
13808;DHT22;40769;51.512;5.494;2023-09-19T04:45:26;16.70;99.90
13808;DHT22;40769;51.512;5.494;2023-09-19T04:47:52;16.70;99.90
13808;DHT22;40769;51.512;5.494;2023-09-19T04:50:18;16.70;99.90
13808;DHT22;40769;51.512;5.494;2023-09-19T04:52:44;16.70;99.90
13808;DHT22;40769;51.512;5.494;2023-09-19T04:55:11;16.70;99.90
13808;DHT22;40769;51.512;5.494;2023-09-19T04:57:47;16.70;99.90
13808;DHT22;40769;51.512;5.494;2023-09-19T05:00:14;16.80;99.90
13808;DHT22;40769;51.512;5.494;2023-09-19T05:02:41;16.80;99.90
13808;DHT22;40769;51.512;5.494;2023-09-19T05:05:11;16.80;99.90
13808;DHT22;40769;51.512;5.494;2023-09-19T05:07:38;16.80;99.90
13808;DHT22;40769;51.512;5.494;2023-09-19T05:10:05;16.80;99.90
13808;DHT22;40769;51.512;5.494;2023-09-19T05:12:35;16.80;99.90
13808;DHT22;40769;51.512;5.494;2023-09-19T05:15:05;16.80;99.90
13808;DHT22;40769;51.512;5.494;2023-09-19T05:17:33;16.80;99.90
13808;DHT22;40769;51.512;5.494;2023-09-19T05:19:59;16.80;99.90
13808;DHT22;40769;51.512;5.494;2023-09-19T05:22:31;16.80;99.90
13808;DHT22;40769;51.512;5.494;2023-09-19T05:24:58;16.80;99.90
13808;DHT22;40769;51.512;5.494;2023-09-19T05:27:24;16.70;99.90
13808;DHT22;40769;51.512;5.494;2023-09-19T05:29:49;15.40;99.90
13808;DHT22;40769;51.512;5.494;2023-09-19T05:32:18;16.70;99.90
13808;DHT22;40769;51.512;5.494;2023-09-19T05:34:45;16.70;99.90
13808;DHT22;40769;51.512;5.494;2023-09-19T05:37:13;16.70;99.90
13808;DHT22;40769;51.512;5.494;2023-09-19T05:39:39;16.70;99.90
13808;DHT22;40769;51.512;5.494;2023-09-19T05:42:04;16.70;99.90
13808;DHT22;40769;51.512;5.494;2023-09-19T05:44:30;16.60;99.90
13808;DHT22;40769;51.512;5.494;2023-09-19T05:46:58;16.70;99.90
13808;DHT22;40769;51.512;5.494;2023-09-19T05:49:24;16.70;99.90
13808;DHT22;40769;51.512;5.494;2023-09-19T05:51:50;16.70;99.90
13808;DHT22;40769;51.512;5.494;2023-09-19T05:54:19;16.70;99.90
13808;DHT22;40769;51.512;5.494;2023-09-19T05:56:45;16.60;99.90
13808;DHT22;40769;51.512;5.494;2023-09-19T05:59:12;16.70;99.90
13808;DHT22;40769;51.512;5.494;2023-09-19T06:01:41;16.70;99.90
13808;DHT22;40769;51.512;5.494;2023-09-19T06:04:07;16.70;99.90
13808;DHT22;40769;51.512;5.494;2023-09-19T06:06:33;16.80;99.90
13808;DHT22;40769;51.512;5.494;2023-09-19T06:09:02;16.80;99.90
13808;DHT22;40769;51.512;5.494;2023-09-19T06:11:30;16.80;99.90
13808;DHT22;40769;51.512;5.494;2023-09-19T06:13:58;16.80;99.90
13808;DHT22;40769;51.512;5.494;2023-09-19T06:16:25;18.10;99.90
13808;DHT22;40769;51.512;5.494;2023-09-19T06:18:51;16.90;99.90
13808;DHT22;40769;51.512;5.494;2023-09-19T06:21:18;16.90;99.90
13808;DHT22;40769;51.512;5.494;2023-09-19T06:23:43;16.90;99.90
13808;DHT22;40769;51.512;5.494;2023-09-19T06:26:09;16.90;99.90
13808;DHT22;40769;51.512;5.494;2023-09-19T06:28:35;17.00;99.90
13808;DHT22;40769;51.512;5.494;2023-09-19T06:31:02;17.00;99.90
13808;DHT22;40769;51.512;5.494;2023-09-19T06:33:28;17.10;99.90
13808;DHT22;40769;51.512;5.494;2023-09-19T06:35:59;17.10;99.90
13808;DHT22;40769;51.512;5.494;2023-09-19T06:38:25;17.20;99.90
13808;DHT22;40769;51.512;5.494;2023-09-19T06:40:51;17.20;99.90
13808;DHT22;40769;51.512;5.494;2023-09-19T06:43:17;17.20;99.90
13808;DHT22;40769;51.512;5.494;2023-09-19T06:45:42;17.30;99.90
13808;DHT22;40769;51.512;5.494;2023-09-19T06:48:08;17.50;99.90
13808;DHT22;40769;51.512;5.494;2023-09-19T06:50:35;17.40;99.90
13808;DHT22;40769;51.512;5.494;2023-09-19T06:53:01;17.40;99.90
13808;DHT22;40769;51.512;5.494;2023-09-19T06:55:28;17.50;99.90
13808;DHT22;40769;51.512;5.494;2023-09-19T06:57:57;17.50;99.90
13808;DHT22;40769;51.512;5.494;2023-09-19T07:00:23;17.60;99.90
13808;DHT22;40769;51.512;5.494;2023-09-19T07:03:00;17.60;99.90
13808;DHT22;40769;51.512;5.494;2023-09-19T07:05:31;17.70;99.90
13808;DHT22;40769;51.512;5.494;2023-09-19T07:07:58;17.70;99.90
13808;DHT22;40769;51.512;5.494;2023-09-19T07:10:25;17.70;99.90
13808;DHT22;40769;51.512;5.494;2023-09-19T07:13:02;17.80;99.90
13808;DHT22;40769;51.512;5.494;2023-09-19T07:15:29;17.80;99.90
13808;DHT22;40769;51.512;5.494;2023-09-19T07:17:56;17.80;99.90
13808;DHT22;40769;51.512;5.494;2023-09-19T07:20:23;17.60;99.90
13808;DHT22;40769;51.512;5.494;2023-09-19T07:22:51;17.90;99.90
13808;DHT22;40769;51.512;5.494;2023-09-19T07:25:16;17.80;99.90
13808;DHT22;40769;51.512;5.494;2023-09-19T07:27:42;17.90;99.90
13808;DHT22;40769;51.512;5.494;2023-09-19T07:30:11;18.00;99.90
13808;DHT22;40769;51.512;5.494;2023-09-19T07:32:38;18.00;99.90
13808;DHT22;40769;51.512;5.494;2023-09-19T07:35:07;18.10;99.90
13808;DHT22;40769;51.512;5.494;2023-09-19T07:37:32;18.20;99.90
13808;DHT22;40769;51.512;5.494;2023-09-19T07:40:08;18.20;99.90
13808;DHT22;40769;51.512;5.494;2023-09-19T07:42:37;18.30;99.90
13808;DHT22;40769;51.512;5.494;2023-09-19T07:45:06;18.40;99.90
13808;DHT22;40769;51.512;5.494;2023-09-19T07:47:33;18.50;99.90
13808;DHT22;40769;51.512;5.494;2023-09-19T07:49:59;18.50;99.90
13808;DHT22;40769;51.512;5.494;2023-09-19T07:52:28;18.70;99.90
13808;DHT22;40769;51.512;5.494;2023-09-19T07:54:54;18.80;99.90
13808;DHT22;40769;51.512;5.494;2023-09-19T07:57:20;18.90;99.90
13808;DHT22;40769;51.512;5.494;2023-09-19T07:59:46;19.00;99.90
13808;DHT22;40769;51.512;5.494;2023-09-19T08:02:12;19.20;99.90
13808;DHT22;40769;51.512;5.494;2023-09-19T08:04:45;19.30;99.90
13808;DHT22;40769;51.512;5.494;2023-09-19T08:07:23;19.40;99.90
13808;DHT22;40769;51.512;5.494;2023-09-19T08:09:49;19.50;99.90
13808;DHT22;40769;51.512;5.494;2023-09-19T08:12:14;19.60;99.90
13808;DHT22;40769;51.512;5.494;2023-09-19T08:14:40;19.80;99.90
13808;DHT22;40769;51.512;5.494;2023-09-19T08:17:09;19.80;99.90
13808;DHT22;40769;51.512;5.494;2023-09-19T08:19:34;20.00;99.90
13808;DHT22;40769;51.512;5.494;2023-09-19T08:22:01;20.10;99.90
13808;DHT22;40769;51.512;5.494;2023-09-19T08:24:29;20.10;99.90
13808;DHT22;40769;51.512;5.494;2023-09-19T08:26:55;20.30;99.90
13808;DHT22;40769;51.512;5.494;2023-09-19T08:29:22;20.30;99.90
13808;DHT22;40769;51.512;5.494;2023-09-19T08:31:56;20.40;99.90
13808;DHT22;40769;51.512;5.494;2023-09-19T08:34:26;20.50;99.90
13808;DHT22;40769;51.512;5.494;2023-09-19T08:36:53;20.70;99.90
13808;DHT22;40769;51.512;5.494;2023-09-19T08:39:22;20.90;99.90
13808;DHT22;40769;51.512;5.494;2023-09-19T08:41:48;21.00;99.90
13808;DHT22;40769;51.512;5.494;2023-09-19T08:44:15;21.70;99.90
13808;DHT22;40769;51.512;5.494;2023-09-19T08:46:42;21.20;99.90
13808;DHT22;40769;51.512;5.494;2023-09-19T08:49:26;21.20;99.90
13808;DHT22;40769;51.512;5.494;2023-09-19T08:52:05;21.30;99.90
13808;DHT22;40769;51.512;5.494;2023-09-19T08:54:36;21.40;99.90
13808;DHT22;40769;51.512;5.494;2023-09-19T08:57:07;21.50;99.90
13808;DHT22;40769;51.512;5.494;2023-09-19T08:59:41;21.60;99.90
13808;DHT22;40769;51.512;5.494;2023-09-19T09:02:12;21.60;99.90
13808;DHT22;40769;51.512;5.494;2023-09-19T09:04:41;21.90;99.90
13808;DHT22;40769;51.512;5.494;2023-09-19T09:07:11;21.90;99.90
13808;DHT22;40769;51.512;5.494;2023-09-19T09:09:37;22.10;99.90
13808;DHT22;40769;51.512;5.494;2023-09-19T09:12:04;22.20;99.90
13808;DHT22;40769;51.512;5.494;2023-09-19T09:14:30;22.30;99.90
13808;DHT22;40769;51.512;5.494;2023-09-19T09:16:56;22.50;99.90
13808;DHT22;40769;51.512;5.494;2023-09-19T09:19:24;22.50;99.90
13808;DHT22;40769;51.512;5.494;2023-09-19T09:21:51;22.60;99.90
13808;DHT22;40769;51.512;5.494;2023-09-19T09:24:29;22.70;99.90
13808;DHT22;40769;51.512;5.494;2023-09-19T09:26:57;22.80;99.90
13808;DHT22;40769;51.512;5.494;2023-09-19T09:29:52;22.90;99.90
13808;DHT22;40769;51.512;5.494;2023-09-19T09:32:30;23.00;99.90
13808;DHT22;40769;51.512;5.494;2023-09-19T09:35:00;23.10;99.90
13808;DHT22;40769;51.512;5.494;2023-09-19T09:37:27;23.20;99.90
13808;DHT22;40769;51.512;5.494;2023-09-19T09:39:57;23.30;99.90
13808;DHT22;40769;51.512;5.494;2023-09-19T09:42:34;23.40;99.90
13808;DHT22;40769;51.512;5.494;2023-09-19T09:47:46;23.50;99.90
13808;DHT22;40769;51.512;5.494;2023-09-19T09:50:31;23.50;99.90
13808;DHT22;40769;51.512;5.494;2023-09-19T09:58:25;23.50;99.90
13808;DHT22;40769;51.512;5.494;2023-09-19T10:00:58;23.60;99.90
13808;DHT22;40769;51.512;5.494;2023-09-19T10:03:38;23.70;99.90
13808;DHT22;40769;51.512;5.494;2023-09-19T10:06:12;23.90;99.90
13808;DHT22;40769;51.512;5.494;2023-09-19T10:09:08;24.00;99.90
13808;DHT22;40769;51.512;5.494;2023-09-19T10:11:47;24.10;99.90
13808;DHT22;40769;51.512;5.494;2023-09-19T10:14:25;24.30;99.90
13808;DHT22;40769;51.512;5.494;2023-09-19T10:16:56;24.40;99.90
13808;DHT22;40769;51.512;5.494;2023-09-19T10:22:00;24.50;99.90
13808;DHT22;40769;51.512;5.494;2023-09-19T10:24:28;24.50;99.90
13808;DHT22;40769;51.512;5.494;2023-09-19T10:26:55;24.50;99.90
13808;DHT22;40769;51.512;5.494;2023-09-19T10:29:21;24.50;99.90
13808;DHT22;40769;51.512;5.494;2023-09-19T10:31:52;24.50;99.90
13808;DHT22;40769;51.512;5.494;2023-09-19T10:34:19;24.60;99.90
13808;DHT22;40769;51.512;5.494;2023-09-19T10:36:46;24.60;99.90
13808;DHT22;40769;51.512;5.494;2023-09-19T10:39:15;24.50;99.90
13808;DHT22;40769;51.512;5.494;2023-09-19T10:41:50;24.60;99.90
13808;DHT22;40769;51.512;5.494;2023-09-19T10:44:23;24.70;99.90
13808;DHT22;40769;51.512;5.494;2023-09-19T10:46:51;24.70;99.90
13808;DHT22;40769;51.512;5.494;2023-09-19T10:49:19;24.70;99.90
13808;DHT22;40769;51.512;5.494;2023-09-19T10:51:45;24.80;99.90
13808;DHT22;40769;51.512;5.494;2023-09-19T10:54:16;24.80;99.90
13808;DHT22;40769;51.512;5.494;2023-09-19T10:56:44;24.80;99.90
13808;DHT22;40769;51.512;5.494;2023-09-19T10:59:19;24.80;99.90
13808;DHT22;40769;51.512;5.494;2023-09-19T11:01:56;25.90;99.90
13808;DHT22;40769;51.512;5.494;2023-09-19T11:07:03;24.90;99.90
13808;DHT22;40769;51.512;5.494;2023-09-19T11:09:52;24.80;99.90
13808;DHT22;40769;51.512;5.494;2023-09-19T11:14:55;24.80;99.90
13808;DHT22;40769;51.512;5.494;2023-09-19T11:28:28;25.10;99.90
13808;DHT22;40769;51.512;5.494;2023-09-19T11:30:54;25.20;99.90
13808;DHT22;40769;51.512;5.494;2023-09-19T11:33:22;25.30;99.90
13808;DHT22;40769;51.512;5.494;2023-09-19T11:36:06;25.40;99.90
13808;DHT22;40769;51.512;5.494;2023-09-19T11:46:51;25.50;99.90
13808;DHT22;40769;51.512;5.494;2023-09-19T11:49:18;25.60;99.90
13808;DHT22;40769;51.512;5.494;2023-09-19T11:51:51;25.60;99.90
13808;DHT22;40769;51.512;5.494;2023-09-19T11:54:17;25.70;99.90
13808;DHT22;40769;51.512;5.494;2023-09-19T11:56:54;25.70;99.90
13808;DHT22;40769;51.512;5.494;2023-09-19T11:59:21;25.80;99.90
13808;DHT22;40769;51.512;5.494;2023-09-19T12:01:52;25.80;99.90
13808;DHT22;40769;51.512;5.494;2023-09-19T12:07:08;25.90;99.90
13808;DHT22;40769;51.512;5.494;2023-09-19T12:09:47;25.80;99.90
13808;DHT22;40769;51.512;5.494;2023-09-19T12:12:21;25.80;99.90
13808;DHT22;40769;51.512;5.494;2023-09-19T12:14:50;25.80;99.90
13808;DHT22;40769;51.512;5.494;2023-09-19T12:17:16;25.70;99.90
13808;DHT22;40769;51.512;5.494;2023-09-19T12:19:55;25.70;99.90
13808;DHT22;40769;51.512;5.494;2023-09-19T12:22:23;27.00;99.90
13808;DHT22;40769;51.512;5.494;2023-09-19T12:24:50;25.60;99.90
13808;DHT22;40769;51.512;5.494;2023-09-19T12:27:16;25.60;99.90
13808;DHT22;40769;51.512;5.494;2023-09-19T12:32:08;25.60;99.90
13808;DHT22;40769;51.512;5.494;2023-09-19T12:34:33;25.50;99.90
13808;DHT22;40769;51.512;5.494;2023-09-19T12:37:11;25.40;99.90
13808;DHT22;40769;51.512;5.494;2023-09-19T12:39:49;25.40;99.90
13808;DHT22;40769;51.512;5.494;2023-09-19T12:42:19;25.30;99.90
13808;DHT22;40769;51.512;5.494;2023-09-19T12:44:52;25.10;99.90
13808;DHT22;40769;51.512;5.494;2023-09-19T12:47:23;25.00;99.90
13808;DHT22;40769;51.512;5.494;2023-09-19T12:52:49;24.80;99.90
13808;DHT22;40769;51.512;5.494;2023-09-19T12:55:26;24.60;99.90
13808;DHT22;40769;51.512;5.494;2023-09-19T12:58:15;24.50;99.90
13808;DHT22;40769;51.512;5.494;2023-09-19T13:00:42;24.40;99.90
13808;DHT22;40769;51.512;5.494;2023-09-19T13:06:03;24.40;99.90
13808;DHT22;40769;51.512;5.494;2023-09-19T13:08:34;24.40;99.90
13808;DHT22;40769;51.512;5.494;2023-09-19T13:11:14;24.40;99.90
13808;DHT22;40769;51.512;5.494;2023-09-19T13:13:51;24.60;99.90
13808;DHT22;40769;51.512;5.494;2023-09-19T13:16:56;24.70;99.90
13808;DHT22;40769;51.512;5.494;2023-09-19T13:19:41;24.80;99.90
13808;DHT22;40769;51.512;5.494;2023-09-19T13:25:09;25.00;99.90
13808;DHT22;40769;51.512;5.494;2023-09-19T13:27:40;25.00;99.90
13808;DHT22;40769;51.512;5.494;2023-09-19T13:30:06;25.00;99.90
13808;DHT22;40769;51.512;5.494;2023-09-19T13:32:32;25.10;99.90
13808;DHT22;40769;51.512;5.494;2023-09-19T13:34:59;25.00;99.90
13808;DHT22;40769;51.512;5.494;2023-09-19T13:37:24;24.90;99.90
13808;DHT22;40769;51.512;5.494;2023-09-19T13:39:52;24.80;99.90
13808;DHT22;40769;51.512;5.494;2023-09-19T13:42:17;24.80;99.90
13808;DHT22;40769;51.512;5.494;2023-09-19T13:44:44;24.60;99.90
13808;DHT22;40769;51.512;5.494;2023-09-19T13:47:09;24.50;99.90
13808;DHT22;40769;51.512;5.494;2023-09-19T13:49:36;24.40;99.90
13808;DHT22;40769;51.512;5.494;2023-09-19T13:52:02;24.30;99.90
13808;DHT22;40769;51.512;5.494;2023-09-19T13:54:32;24.30;99.90
13808;DHT22;40769;51.512;5.494;2023-09-19T13:56:58;24.30;99.90
13808;DHT22;40769;51.512;5.494;2023-09-19T13:59:24;24.20;99.90
13808;DHT22;40769;51.512;5.494;2023-09-19T14:01:50;24.20;99.90
13808;DHT22;40769;51.512;5.494;2023-09-19T14:04:19;24.20;99.90
13808;DHT22;40769;51.512;5.494;2023-09-19T14:06:46;24.20;99.90
13808;DHT22;40769;51.512;5.494;2023-09-19T14:09:12;24.10;99.90
13808;DHT22;40769;51.512;5.494;2023-09-19T14:11:39;24.10;99.90
13808;DHT22;40769;51.512;5.494;2023-09-19T14:14:04;24.10;99.90
13808;DHT22;40769;51.512;5.494;2023-09-19T14:16:31;24.10;99.90
13808;DHT22;40769;51.512;5.494;2023-09-19T14:18:57;24.10;99.90
13808;DHT22;40769;51.512;5.494;2023-09-19T14:21:26;24.10;99.90
13808;DHT22;40769;51.512;5.494;2023-09-19T14:23:52;23.00;99.90
13808;DHT22;40769;51.512;5.494;2023-09-19T14:26:20;24.20;99.90
13808;DHT22;40769;51.512;5.494;2023-09-19T14:28:45;24.20;99.90
13808;DHT22;40769;51.512;5.494;2023-09-19T14:31:11;24.30;99.90
13808;DHT22;40769;51.512;5.494;2023-09-19T14:33:37;24.30;99.90
13808;DHT22;40769;51.512;5.494;2023-09-19T14:36:08;24.50;99.90
13808;DHT22;40769;51.512;5.494;2023-09-19T14:38:35;24.60;99.90
13808;DHT22;40769;51.512;5.494;2023-09-19T14:41:05;24.80;99.90
13808;DHT22;40769;51.512;5.494;2023-09-19T14:43:34;24.90;99.90
13808;DHT22;40769;51.512;5.494;2023-09-19T14:46:04;25.00;99.90
13808;DHT22;40769;51.512;5.494;2023-09-19T14:48:30;25.10;99.90
13808;DHT22;40769;51.512;5.494;2023-09-19T14:51:05;25.10;99.90
13808;DHT22;40769;51.512;5.494;2023-09-19T14:53:31;25.20;99.90
13808;DHT22;40769;51.512;5.494;2023-09-19T14:56:01;25.10;99.90
13808;DHT22;40769;51.512;5.494;2023-09-19T14:58:29;25.20;99.90
13808;DHT22;40769;51.512;5.494;2023-09-19T15:01:09;25.10;99.90
13808;DHT22;40769;51.512;5.494;2023-09-19T15:03:38;25.10;99.90
13808;DHT22;40769;51.512;5.494;2023-09-19T15:06:12;25.10;99.90
13808;DHT22;40769;51.512;5.494;2023-09-19T15:08:44;25.10;99.90
13808;DHT22;40769;51.512;5.494;2023-09-19T15:11:19;25.10;99.90
13808;DHT22;40769;51.512;5.494;2023-09-19T15:13:51;25.00;99.90
13808;DHT22;40769;51.512;5.494;2023-09-19T15:16:35;24.90;99.90
13808;DHT22;40769;51.512;5.494;2023-09-19T15:19:01;24.80;99.90
13808;DHT22;40769;51.512;5.494;2023-09-19T15:21:26;24.70;99.90
13808;DHT22;40769;51.512;5.494;2023-09-19T15:24:07;24.60;99.90
13808;DHT22;40769;51.512;5.494;2023-09-19T15:26:40;24.50;99.90
13808;DHT22;40769;51.512;5.494;2023-09-19T15:29:07;24.50;99.90
13808;DHT22;40769;51.512;5.494;2023-09-19T15:31:33;24.50;99.90
13808;DHT22;40769;51.512;5.494;2023-09-19T15:33:58;24.50;99.90
13808;DHT22;40769;51.512;5.494;2023-09-19T15:36:24;24.40;99.90
13808;DHT22;40769;51.512;5.494;2023-09-19T15:38:55;24.40;99.90
13808;DHT22;40769;51.512;5.494;2023-09-19T15:41:22;24.40;99.90
13808;DHT22;40769;51.512;5.494;2023-09-19T15:43:48;24.30;99.90
13808;DHT22;40769;51.512;5.494;2023-09-19T15:46:17;24.80;99.90
13808;DHT22;40769;51.512;5.494;2023-09-19T15:48:43;24.30;99.90
13808;DHT22;40769;51.512;5.494;2023-09-19T15:51:10;24.20;99.90
13808;DHT22;40769;51.512;5.494;2023-09-19T15:53:47;24.10;99.90
13808;DHT22;40769;51.512;5.494;2023-09-19T15:56:14;24.00;99.90
13808;DHT22;40769;51.512;5.494;2023-09-19T15:58:47;23.90;99.90
13808;DHT22;40769;51.512;5.494;2023-09-19T16:01:13;23.80;99.90
13808;DHT22;40769;51.512;5.494;2023-09-19T16:03:42;23.70;99.90
13808;DHT22;40769;51.512;5.494;2023-09-19T16:06:13;23.60;99.90
13808;DHT22;40769;51.512;5.494;2023-09-19T16:08:41;23.50;99.90
13808;DHT22;40769;51.512;5.494;2023-09-19T16:11:08;23.40;99.90
13808;DHT22;40769;51.512;5.494;2023-09-19T16:13:34;23.30;99.90
13808;DHT22;40769;51.512;5.494;2023-09-19T16:16:04;23.30;99.90
13808;DHT22;40769;51.512;5.494;2023-09-19T16:18:30;23.20;99.90
13808;DHT22;40769;51.512;5.494;2023-09-19T16:21:06;23.20;99.90
13808;DHT22;40769;51.512;5.494;2023-09-19T16:23:36;23.10;99.90
13808;DHT22;40769;51.512;5.494;2023-09-19T16:26:07;23.00;99.90
13808;DHT22;40769;51.512;5.494;2023-09-19T16:28:37;23.00;99.90
13808;DHT22;40769;51.512;5.494;2023-09-19T16:31:04;23.00;99.90
13808;DHT22;40769;51.512;5.494;2023-09-19T16:33:35;22.90;99.90
13808;DHT22;40769;51.512;5.494;2023-09-19T16:36:14;22.80;99.90
13808;DHT22;40769;51.512;5.494;2023-09-19T16:38:40;22.70;99.90
13808;DHT22;40769;51.512;5.494;2023-09-19T16:41:07;22.70;99.90